Time;durP1;ratioP1;P1;durP2;ratioP2;P2;SDS_P1;SDS_P2;PMS_P1;PMS_P2;Temp;Humidity;BMP_temperature;BMP_pressure;BME280_temperature;BME280_humidity;BME280_pressure;Samples;Min_cycle;Max_cycle;Signal;HPM_P1;HPM_P2
2022/07/06 00:00:22;;;;;;;4.23;1.80;;;17.90;94.60;;;18.98;84.29;98847.50;4930852;29;20486;-77
2022/07/06 00:02:53;;;;;;;4.50;1.53;;;17.90;94.80;;;18.91;83.59;98838.78;4926052;29;20506;-76
2022/07/06 00:05:24;;;;;;;2.70;1.53;;;17.90;94.40;;;18.87;83.92;98845.56;4930237;29;20546;-77
2022/07/06 00:07:54;;;;;;;6.60;2.43;;;17.90;94.40;;;18.84;84.11;98846.81;4927799;29;20521;-77
2022/07/06 00:10:25;;;;;;;1.47;1.37;;;17.80;94.50;;;18.84;83.95;98840.72;4927258;29;20477;-77
2022/07/06 00:12:54;;;;;;;6.07;1.90;;;17.80;94.60;;;18.79;83.88;98838.72;4928273;29;20463;-77
2022/07/06 00:15:23;;;;;;;3.23;1.23;;;17.70;94.70;;;18.79;83.76;98845.84;4928686;29;20478;-77
2022/07/06 00:17:54;;;;;;;10.33;2.03;;;17.70;94.60;;;18.77;83.96;98842.63;4930221;29;20792;-77
2022/07/06 00:20:24;;;;;;;2.00;1.27;;;17.60;94.70;;;18.75;83.79;98847.31;4928319;29;20468;-77
2022/07/06 00:22:54;;;;;;;4.30;1.80;;;17.60;94.60;;;18.75;83.61;98848.13;4929613;29;20538;-76
2022/07/06 00:25:24;;;;;;;5.60;1.40;;;17.60;94.70;;;18.73;83.78;98849.38;4931194;29;21001;-77
2022/07/06 00:27:54;;;;;;;2.10;1.33;;;17.60;94.80;;;18.70;83.68;98847.97;4928077;29;20498;-76
2022/07/06 00:30:24;;;;;;;3.03;1.43;;;17.60;94.70;;;18.68;83.88;98844.72;4928929;29;20477;-77
2022/07/06 00:32:57;;;;;;;2.93;1.30;;;17.60;94.80;;;18.69;83.75;98837.59;4928971;29;20471;-77
2022/07/06 00:35:28;;;;;;;1.50;1.20;;;17.50;94.80;;;18.65;84.27;98839.88;4926937;29;20563;-76
2022/07/06 00:37:58;;;;;;;3.20;1.73;;;17.40;94.80;;;18.63;83.54;98838.47;4928132;29;20502;-76
2022/07/06 00:40:29;;;;;;;4.00;1.47;;;17.50;94.80;;;18.58;84.09;98839.94;4928622;29;20826;-77
2022/07/06 00:42:59;;;;;;;3.37;1.70;;;17.40;94.80;;;18.51;84.36;98836.53;4928978;29;20510;-77
2022/07/06 00:45:29;;;;;;;4.47;1.70;;;17.50;94.80;;;18.48;84.55;98847.53;4929797;29;20454;-76
2022/07/06 00:48:00;;;;;;;2.00;1.30;;;17.40;94.80;;;18.39;84.94;98848.03;4926828;29;20463;-76
2022/07/06 00:50:29;;;;;;;2.20;1.30;;;17.40;94.80;;;18.35;85.37;98849.50;4928573;29;20470;-77
2022/07/06 00:53:05;;;;;;;11.57;1.73;;;17.30;94.80;;;18.33;85.27;98849.69;4927049;29;20478;-76
2022/07/06 00:55:39;;;;;;;10.03;1.53;;;17.30;94.90;;;18.31;85.29;98846.47;4928708;29;20461;-76
2022/07/06 00:58:08;;;;;;;5.63;1.93;;;17.20;94.90;;;18.30;84.92;98849.31;4928608;29;20483;-76
2022/07/06 01:00:44;;;;;;;4.30;1.80;;;17.20;94.90;;;18.26;85.15;98838.34;4926827;29;20502;-77
2022/07/06 01:03:16;;;;;;;3.47;1.60;;;17.20;94.90;;;18.18;85.74;98840.47;4927558;29;21095;-77
2022/07/06 01:05:46;;;;;;;1.67;1.30;;;17.20;95.00;;;18.17;86.19;98833.56;4928997;29;20463;-77
2022/07/06 01:08:16;;;;;;;3.93;1.70;;;17.10;95.10;;;18.16;86.10;98839.88;4926593;29;20478;-77
2022/07/06 01:10:45;;;;;;;4.40;1.70;;;17.00;95.10;;;18.11;85.95;98837.88;4927989;29;20481;-76
2022/07/06 01:13:16;;;;;;;3.37;1.57;;;17.10;94.90;;;18.08;86.18;98846.25;4925767;29;20470;-77
2022/07/06 01:15:46;;;;;;;1.33;1.20;;;17.00;95.20;;;18.06;85.84;98850.94;4927358;29;20518;-77
2022/07/06 01:18:17;;;;;;;2.90;1.53;;;17.10;94.90;;;18.02;85.82;98841.81;4927090;29;20463;-76
2022/07/06 01:20:50;;;;;;;3.10;1.20;;;17.10;94.90;;;17.97;86.44;98839.81;4928534;29;20472;-77
2022/07/06 01:23:20;;;;;;;2.50;1.63;;;17.00;95.20;;;17.94;86.81;98842.91;4927043;29;20512;-77
2022/07/06 01:25:50;;;;;;;5.20;1.50;;;16.90;95.40;;;17.89;86.84;98839.25;4925906;29;20494;-76
2022/07/06 01:28:20;;;;;;;1.87;1.50;;;16.90;95.20;;;17.84;86.71;98844.41;4928197;29;20561;-77
2022/07/06 01:30:51;;;;;;;2.00;1.30;;;16.80;95.20;;;17.83;87.15;98832.19;4928888;29;20451;-77
2022/07/06 01:33:20;;;;;;;3.80;1.63;;;16.70;95.40;;;17.74;87.72;98836.09;4926418;29;20592;-77
2022/07/06 01:35:51;;;;;;;1.50;1.37;;;16.60;95.40;;;17.69;88.40;98841.22;4927682;29;20472;-76
2022/07/06 01:38:22;;;;;;;5.33;1.73;;;16.60;95.50;;;17.66;88.50;98846.94;4925738;29;20478;-77
2022/07/06 01:40:51;;;;;;;4.07;1.63;;;16.60;95.60;;;17.58;88.71;98845.34;4927260;29;20477;-77
2022/07/06 01:43:23;;;;;;;1.60;1.30;;;16.50;95.80;;;17.57;89.29;98847.19;4926597;29;20614;-77
2022/07/06 01:45:52;;;;;;;1.70;1.57;;;16.40;95.80;;;17.58;89.42;98838.22;4929838;29;20525;-77
2022/07/06 01:48:22;;;;;;;2.67;1.50;;;16.40;96.20;;;17.54;89.40;98838.81;4930852;29;20473;-76
2022/07/06 01:50:53;;;;;;;1.57;1.47;;;16.40;96.00;;;17.45;90.21;98842.75;4931448;29;20473;-76
2022/07/06 01:53:23;;;;;;;6.63;1.77;;;16.30;96.00;;;17.45;90.19;98840.91;4929604;29;20518;-77
2022/07/06 01:55:53;;;;;;;1.93;1.50;;;16.30;96.20;;;17.41;90.14;98833.63;4928881;29;20510;-76
2022/07/06 01:58:22;;;;;;;1.53;1.37;;;16.30;96.10;;;17.39;90.97;98836.44;4929583;29;20808;-76
2022/07/06 02:00:53;;;;;;;2.40;1.40;;;16.20;96.10;;;17.35;90.12;98840.56;4930328;29;20533;-77
2022/07/06 02:03:23;;;;;;;2.20;1.50;;;16.20;96.00;;;17.32;90.21;98846.25;4931178;29;20509;-77
2022/07/06 02:05:56;;;;;;;5.73;1.50;;;16.20;95.90;;;17.26;91.04;98843.63;4929340;29;20454;-76
2022/07/06 02:08:26;;;;;;;2.80;1.87;;;16.20;96.30;;;17.21;90.75;98848.75;4928445;29;20513;-76
2022/07/06 02:10:55;;;;;;;2.00;1.30;;;16.20;95.80;;;17.14;91.56;98842.69;4930141;29;20478;-76
2022/07/06 02:13:25;;;;;;;1.20;1.10;;;16.10;96.00;;;17.11;91.61;98847.34;4928077;29;20466;-76
2022/07/06 02:15:55;;;;;;;1.57;1.27;;;16.10;96.30;;;17.04;92.22;98840.50;4931260;29;20537;-77
2022/07/06 02:18:26;;;;;;;2.43;1.40;;;16.00;96.20;;;16.94;93.34;98854.13;4932070;29;20505;-77
2022/07/06 02:20:59;;;;;;;2.17;1.30;;;16.00;96.40;;;16.85;93.99;98847.44;4928788;29;21531;-76
2022/07/06 02:23:30;;;;;;;5.57;1.37;;;15.90;96.30;;;16.77;95.12;98847.66;4931051;29;20537;-76
2022/07/06 02:25:59;;;;;;;6.10;1.50;;;15.80;96.70;;;16.70;95.44;98843.41;4930079;29;20488;-76
2022/07/06 02:28:28;;;;;;;2.90;1.63;;;15.90;96.30;;;16.67;95.46;98844.63;4931197;29;20871;-76
2022/07/06 02:30:57;;;;;;;2.70;1.70;;;15.70;96.50;;;16.65;95.71;98835.28;4932288;29;20930;-76
2022/07/06 02:33:26;;;;;;;5.03;1.33;;;15.80;96.50;;;16.65;95.61;98848.50;4932411;29;20809;-77
2022/07/06 02:35:57;;;;;;;6.27;1.70;;;15.70;96.60;;;16.59;95.64;98837.72;4933502;29;20462;-77
2022/07/06 02:38:26;;;;;;;2.93;1.70;;;15.70;96.60;;;16.51;96.98;98837.13;4927186;29;20470;-76
2022/07/06 02:40:55;;;;;;;1.93;1.40;;;15.70;96.60;;;16.48;97.09;98843.63;4929861;29;20553;-76
2022/07/06 02:43:24;;;;;;;1.93;1.50;;;15.60;96.90;;;16.50;97.38;98843.41;4926696;29;20961;-76
2022/07/06 02:45:55;;;;;;;2.60;1.20;;;15.50;97.00;;;16.48;98.42;98843.63;4928561;29;20474;-76
2022/07/06 02:48:25;;;;;;;5.10;1.57;;;15.40;97.10;;;16.46;97.66;98836.91;4927575;29;20921;-76
2022/07/06 02:50:58;;;;;;;1.60;1.40;;;15.40;97.10;;;16.42;98.16;98844.44;4929802;29;20481;-76
2022/07/06 02:53:28;;;;;;;3.30;1.80;;;15.30;97.30;;;16.39;98.43;98855.41;4926604;29;20468;-76
2022/07/06 02:55:58;;;;;;;4.30;1.83;;;15.30;97.30;;;16.39;98.17;98873.06;4928706;29;21077;-76
2022/07/06 02:58:28;;;;;;;5.37;1.87;;;15.30;97.20;;;16.36;98.29;98876.09;4928280;29;20950;-76
2022/07/06 03:00:57;;;;;;;2.30;1.60;;;15.30;97.40;;;16.33;98.22;98871.25;4927580;29;20853;-76
2022/07/06 03:03:27;;;;;;;6.77;3.53;;;15.30;97.00;;;16.29;98.68;98873.47;4926677;29;20575;-76
2022/07/06 03:05:58;;;;;;;1.47;1.37;;;15.30;97.40;;;16.26;98.74;98871.25;4928594;29;20470;-76
2022/07/06 03:08:29;;;;;;;1.93;1.40;;;15.20;97.40;;;16.24;99.27;98873.28;4928847;29;20459;-84
2022/07/06 03:10:58;;;;;;;6.57;1.60;;;15.20;97.50;;;16.19;99.36;98867.78;4927982;29;20475;-77
2022/07/06 03:13:28;;;;;;;2.40;1.67;;;15.20;97.20;;;16.15;99.78;98874.47;4925924;29;20462;-76
2022/07/06 03:15:59;;;;;;;1.70;1.50;;;15.20;97.50;;;16.15;99.95;98877.13;4928246;29;20527;-76
2022/07/06 03:18:29;;;;;;;2.43;1.70;;;15.10;97.40;;;16.11;99.94;98878.53;4927999;29;20473;-76
2022/07/06 03:21:03;;;;;;;2.33;1.83;;;15.10;97.40;;;16.10;100.00;98884.84;4930170;29;20469;-83
2022/07/06 03:23:33;;;;;;;3.37;1.80;;;15.10;97.80;;;16.06;99.80;98891.53;4927936;29;20541;-76
2022/07/06 03:26:03;;;;;;;2.23;1.50;;;15.00;97.40;;;16.02;100.00;98890.31;4929165;29;20482;-77
2022/07/06 03:28:33;;;;;;;2.10;1.63;;;15.00;97.60;;;16.02;100.00;98895.59;4930010;29;20517;-76
2022/07/06 03:31:03;;;;;;;2.50;1.73;;;14.90;97.70;;;15.96;100.00;98886.66;4930351;29;20446;-76
2022/07/06 03:33:33;;;;;;;3.10;1.80;;;15.00;97.30;;;15.91;100.00;98883.78;4928962;29;20506;-76
2022/07/06 03:36:05;;;;;;;1.97;1.50;;;14.90;97.60;;;15.91;100.00;98885.63;4930486;29;20798;-76
2022/07/06 03:38:35;;;;;;;6.30;1.30;;;14.90;98.00;;;15.93;100.00;98886.25;4929064;29;20474;-76
2022/07/06 03:41:05;;;;;;;1.40;1.30;;;14.80;97.90;;;15.89;100.00;98888.47;4931159;29;20447;-76
2022/07/06 03:43:35;;;;;;;1.50;1.40;;;14.80;97.80;;;15.85;100.00;98895.16;4930839;29;20467;-76
2022/07/06 03:46:05;;;;;;;2.47;1.50;;;14.90;97.80;;;15.84;100.00;98895.34;4930531;29;20490;-76
2022/07/06 03:48:36;;;;;;;24.33;11.37;;;14.80;98.00;;;15.83;100.00;98898.97;4931209;29;20954;-82
2022/07/06 03:51:07;;;;;;;6.53;2.23;;;14.80;98.00;;;15.83;100.00;98901.63;4932360;29;20459;-76
2022/07/06 03:53:37;;;;;;;1.60;1.30;;;14.70;97.90;;;15.81;100.00;98909.75;4930321;29;20453;-76
2022/07/06 03:58:56;;;;;;;3.83;2.10;;;14.80;98.10;;;15.69;100.00;98892.06;4930070;29;20871;-76
2022/07/06 04:01:26;;;;;;;2.57;1.53;;;14.70;98.10;;;15.68;100.00;98900.97;4930525;29;20457;-76
2022/07/06 04:03:56;;;;;;;2.57;1.47;;;14.70;98.30;;;15.70;100.00;98901.59;4929380;29;21516;-76
2022/07/06 04:06:28;;;;;;;1.87;1.60;;;14.60;98.20;;;15.67;100.00;98907.25;4929264;29;20973;-76
2022/07/06 04:08:57;;;;;;;1.60;1.30;;;14.70;98.10;;;15.63;100.00;98904.19;4930367;29;20455;-76
2022/07/06 04:11:27;;;;;;;2.20;1.60;;;14.60;98.00;;;15.57;100.00;98895.28;4930298;29;20462;-82
2022/07/06 04:13:56;;;;;;;2.00;1.80;;;14.60;98.10;;;15.56;100.00;98901.53;4929189;29;20491;-76
2022/07/06 04:16:27;;;;;;;6.33;2.20;;;14.50;98.30;;;15.54;100.00;98900.13;4929541;29;20446;-76
2022/07/06 04:18:57;;;;;;;1.93;1.73;;;14.50;98.50;;;15.50;100.00;98902.34;4929570;29;20459;-77
2022/07/06 04:21:27;;;;;;;1.73;1.63;;;14.50;98.20;;;15.48;100.00;98909.63;4928760;29;20489;-75
2022/07/06 04:23:58;;;;;;;3.17;1.60;;;14.50;98.60;;;15.45;100.00;98909.97;4929782;29;20480;-76
2022/07/06 04:26:28;;;;;;;3.83;1.90;;;14.40;98.80;;;15.43;100.00;98917.28;4929085;29;20509;-76
2022/07/06 04:28:58;;;;;;;3.23;1.57;;;14.40;98.50;;;15.43;100.00;98922.56;4929434;29;20455;-78
2022/07/06 04:31:29;;;;;;;3.43;2.00;;;14.50;98.50;;;15.40;100.00;98919.50;4929731;29;20977;-76
2022/07/06 04:33:59;;;;;;;6.53;1.77;;;14.50;98.50;;;15.41;100.00;98929.03;4932331;29;20487;-76
2022/07/06 04:36:31;;;;;;;5.43;1.70;;;14.50;98.30;;;15.43;100.00;98924.38;4931371;29;20451;-76
2022/07/06 04:39:01;;;;;;;2.00;1.40;;;14.50;98.40;;;15.43;100.00;98934.91;4931126;29;20937;-76
2022/07/06 04:41:31;;;;;;;2.70;1.40;;;14.50;98.40;;;15.46;100.00;98924.81;4931218;29;20442;-76
2022/07/06 04:44:02;;;;;;;2.17;1.60;;;14.40;98.70;;;15.49;100.00;98928.88;4930815;29;20454;-76
2022/07/06 04:46:33;;;;;;;4.23;1.90;;;14.50;98.70;;;15.53;100.00;98930.13;4931759;29;20841;-76
2022/07/06 04:49:02;;;;;;;4.80;2.03;;;14.50;98.90;;;15.54;100.00;98931.75;4931771;29;20449;-76
2022/07/06 04:51:33;;;;;;;4.03;1.53;;;14.50;98.50;;;15.58;100.00;98935.63;4932408;29;20447;-76
2022/07/06 04:54:04;;;;;;;3.53;1.90;;;14.50;98.50;;;15.57;100.00;98942.72;4930782;29;20506;-76
2022/07/06 04:56:35;;;;;;;3.80;1.97;;;14.60;98.30;;;15.58;100.00;98938.28;4931719;29;20517;-76
2022/07/06 04:59:06;;;;;;;5.30;1.40;;;14.50;98.20;;;15.62;100.00;98939.47;4931695;29;20447;-76
2022/07/06 05:01:35;;;;;;;3.30;1.57;;;14.60;98.60;;;15.67;100.00;98934.44;4931812;29;20450;-76
2022/07/06 05:04:06;;;;;;;2.90;1.97;;;14.60;98.70;;;15.69;100.00;98942.16;4930864;29;20498;-76
2022/07/06 05:06:36;;;;;;;3.93;1.77;;;14.70;98.30;;;15.62;100.00;98941.34;4929332;29;20549;-76
2022/07/06 05:09:07;;;;;;;5.57;1.60;;;14.60;97.40;;;15.68;100.00;98940.53;4930334;29;20456;-76
2022/07/06 05:11:37;;;;;;;9.47;1.60;;;14.70;97.60;;;15.69;100.00;98932.41;4930594;29;20526;-76
2022/07/06 05:14:07;;;;;;;8.40;1.67;;;14.70;97.20;;;15.68;97.41;98937.91;4930209;29;20511;-76
2022/07/06 05:16:38;;;;;;;4.73;1.40;;;14.80;96.60;;;15.70;95.47;98938.50;4930482;29;21497;-76
2022/07/06 05:19:07;;;;;;;2.90;1.40;;;14.90;96.70;;;15.71;94.09;98940.97;4934987;29;20466;-76
2022/07/06 05:21:39;;;;;;;4.00;1.50;;;14.90;96.00;;;15.71;94.17;98943.59;4934757;29;20454;-76
2022/07/06 05:24:09;;;;;;;1.80;1.37;;;14.90;96.30;;;15.74;93.89;98942.38;4933634;29;21041;-76
2022/07/06 05:26:39;;;;;;;3.23;2.03;;;14.80;95.90;;;15.76;92.35;98943.78;4935230;29;20789;-76
2022/07/06 05:29:09;;;;;;;3.67;1.53;;;14.90;95.60;;;15.82;92.58;98937.75;4934349;29;20505;-76
2022/07/06 05:31:40;;;;;;;8.63;2.00;;;14.90;95.90;;;15.87;92.63;98937.13;4933090;29;20463;-76
2022/07/06 05:34:10;;;;;;;5.60;1.83;;;14.90;95.90;;;15.89;92.26;98938.59;4934005;29;20443;-76
2022/07/06 05:36:41;;;;;;;6.00;1.97;;;14.90;95.70;;;15.90;90.43;98939.38;4932433;29;20514;-76
2022/07/06 05:39:11;;;;;;;4.33;1.83;;;15.00;95.40;;;15.94;90.20;98940.59;4935432;29;20506;-76
2022/07/06 05:41:40;;;;;;;1.90;1.30;;;15.00;95.40;;;15.95;90.57;98931.69;4934657;29;20529;-76
2022/07/06 05:44:10;;;;;;;5.63;1.80;;;15.10;95.50;;;15.93;90.92;98934.50;4932986;29;20474;-76
2022/07/06 05:46:39;;;;;;;3.20;1.87;;;15.00;95.60;;;15.94;89.30;98938.78;4933275;29;20502;-76
2022/07/06 05:51:57;;;;;;;2.57;2.00;;;15.10;95.00;;;16.06;88.68;98939.84;4932968;29;20571;-76
2022/07/06 05:54:27;;;;;;;2.67;1.90;;;15.10;95.20;;;16.09;88.22;98933.34;4933376;29;20482;-76
2022/07/06 05:56:58;;;;;;;6.93;2.03;;;15.10;95.10;;;16.07;87.26;98943.28;4933271;29;20544;-76
2022/07/06 05:59:29;;;;;;;5.00;2.00;;;15.10;94.70;;;16.05;86.08;98932.13;4933190;29;20450;-76
2022/07/06 06:02:00;;;;;;;5.30;2.10;;;15.20;94.40;;;16.03;85.86;98939.44;4933326;29;20477;-76
2022/07/06 06:04:31;;;;;;;4.33;2.30;;;15.30;94.30;;;16.07;86.15;98940.63;4932560;29;20555;-76
2022/07/06 06:07:03;;;;;;;6.63;2.67;;;15.20;94.40;;;16.07;85.19;98935.34;4933572;29;20580;-76
2022/07/06 06:09:33;;;;;;;4.60;2.07;;;15.30;94.20;;;16.06;85.22;98939.84;4933302;29;20479;-76
2022/07/06 06:12:06;;;;;;;7.93;2.57;;;15.30;94.20;;;15.95;85.03;98929.06;4932697;29;20505;-76
2022/07/06 06:14:36;;;;;;;3.70;1.97;;;15.20;94.00;;;16.01;84.98;98925.59;4931633;29;20940;-76
2022/07/06 06:17:09;;;;;;;4.27;2.23;;;15.30;94.20;;;16.07;85.32;98936.16;4932170;29;20481;-76
2022/07/06 06:19:40;;;;;;;6.30;2.20;;;15.20;94.30;;;16.13;84.67;98933.75;4932567;29;20510;-76
2022/07/06 06:22:11;;;;;;;4.40;2.23;;;15.30;94.10;;;16.13;83.67;98934.56;4932046;29;20481;-76
2022/07/06 06:24:41;;;;;;;3.63;1.60;;;15.40;93.80;;;16.12;83.38;98938.22;4931845;29;21049;-76
2022/07/06 06:27:12;;;;;;;3.00;1.90;;;15.40;93.70;;;16.13;82.83;98939.03;4933331;29;20861;-76
2022/07/06 06:29:44;;;;;;;4.67;2.37;;;15.30;93.60;;;16.18;82.77;98939.22;4932895;29;20504;-76
2022/07/06 06:32:15;;;;;;;3.73;2.20;;;15.30;93.80;;;16.16;82.74;98939.44;4931740;29;20474;-76
2022/07/06 06:34:45;;;;;;;3.73;2.00;;;15.40;93.60;;;16.08;82.26;98952.81;4932955;29;20514;-76
2022/07/06 06:37:17;;;;;;;2.93;2.10;;;15.40;93.40;;;15.98;83.51;98944.47;4933819;29;20467;-76
2022/07/06 06:39:47;;;;;;;2.67;1.40;;;15.20;93.60;;;16.00;82.92;98947.75;4932948;29;20884;-76
2022/07/06 06:42:18;;;;;;;5.23;2.10;;;15.20;93.70;;;16.03;82.25;98957.91;4931980;29;21441;-76
2022/07/06 06:44:49;;;;;;;7.13;2.07;;;15.30;93.50;;;16.04;82.38;98954.22;4932354;29;21133;-76
2022/07/06 06:47:20;;;;;;;2.50;1.77;;;15.30;93.60;;;16.05;82.51;98963.78;4933963;29;20502;-76
2022/07/06 06:49:50;;;;;;;7.40;2.47;;;15.20;93.40;;;16.08;81.61;98956.28;4931132;29;20469;-76
2022/07/06 06:52:21;;;;;;;2.30;2.00;;;15.30;93.40;;;16.15;82.20;98958.13;4933402;29;20466;-76
2022/07/06 06:55:10;;;;;;;1.67;1.40;;;15.40;93.60;;;16.22;82.32;98956.28;4932976;29;20458;-76
2022/07/06 06:57:41;;;;;;;1.97;1.63;;;15.40;93.60;;;16.25;81.92;98954.06;4933313;29;20522;-76
2022/07/06 07:00:12;;;;;;;3.63;2.20;;;15.50;93.60;;;16.29;81.22;98957.94;4932223;29;20969;-76
2022/07/06 07:02:43;;;;;;;2.53;1.37;;;15.40;93.30;;;16.30;80.95;98959.56;4917119;29;20939;-76
2022/07/06 07:05:13;;;;;;;10.17;2.00;;;15.60;93.30;;;16.27;80.77;98957.34;4932674;29;20466;-76
2022/07/06 07:07:45;;;;;;;2.27;1.50;;;15.60;93.20;;;16.34;81.13;98968.72;4932688;29;20509;-76
2022/07/06 07:10:16;;;;;;;4.03;1.43;;;15.70;93.30;;;16.32;80.25;98968.09;4932004;29;20521;-76
2022/07/06 07:12:48;;;;;;;7.37;2.17;;;15.60;93.00;;;16.34;79.30;98960.81;4931403;29;20450;-76
2022/07/06 07:15:18;;;;;;;3.17;1.60;;;15.60;92.80;;;16.40;79.12;98967.91;4931952;29;20569;-76
2022/07/06 07:17:47;;;;;;;1.77;1.60;;;15.70;92.90;;;16.42;78.58;98971.16;4930098;29;21143;-76
2022/07/06 07:20:17;;;;;;;2.57;1.53;;;15.70;92.80;;;16.35;77.06;98962.41;4931987;29;20541;-76
2022/07/06 07:22:49;;;;;;;3.73;1.60;;;15.70;92.30;;;16.38;77.76;98966.50;4932642;29;20857;-76
2022/07/06 07:25:20;;;;;;;2.40;1.43;;;15.60;92.60;;;16.41;77.03;98969.56;4932993;29;20533;-76
2022/07/06 07:27:50;;;;;;;6.93;1.77;;;15.60;92.50;;;16.33;76.04;98961.81;4930614;29;20499;-76
2022/07/06 07:30:20;;;;;;;7.43;1.53;;;15.60;92.10;;;16.40;77.42;98964.47;4932958;29;20458;-76
2022/07/06 07:32:50;;;;;;;3.53;1.80;;;15.60;92.40;;;16.39;76.84;98963.63;4931641;29;20478;-76
2022/07/06 07:35:21;;;;;;;1.77;1.20;;;15.70;92.40;;;16.44;77.04;98968.31;4932131;29;20471;-76
2022/07/06 07:37:53;;;;;;;1.93;1.10;;;15.70;92.60;;;16.49;76.86;98964.06;4932798;29;20458;-76
2022/07/06 07:40:23;;;;;;;4.90;1.50;;;15.70;92.50;;;16.57;76.43;98968.34;4931554;29;20483;-76
2022/07/06 07:42:52;;;;;;;2.83;1.43;;;15.80;92.40;;;16.57;75.29;98958.63;4929436;29;20470;-76
2022/07/06 07:45:20;;;;;;;7.13;1.57;;;15.80;91.90;;;16.65;75.30;98970.00;4929289;29;20493;-76
2022/07/06 07:47:50;;;;;;;5.23;1.30;;;15.90;92.10;;;16.69;75.60;98971.22;4931549;29;20909;-76
2022/07/06 07:50:19;;;;;;;3.90;1.70;;;15.90;92.20;;;16.77;75.34;98978.91;4933065;29;20518;-76
2022/07/06 07:52:49;;;;;;;2.77;1.50;;;16.00;92.30;;;16.76;74.27;98959.66;4931444;29;20957;-76
2022/07/06 07:55:21;;;;;;;3.37;1.33;;;15.90;91.80;;;16.82;74.23;98966.75;4932481;29;21389;-76
2022/07/06 07:58:08;;;;;;;4.90;1.20;;;16.00;92.10;;;16.87;73.95;98955.56;4931702;29;20710;-76
2022/07/06 08:00:38;;;;;;;2.30;1.20;;;16.00;92.20;;;16.93;74.24;98952.09;4931790;29;20474;-76
2022/07/06 08:03:10;;;;;;;1.40;1.30;;;16.10;92.20;;;17.02;73.57;98961.44;4932246;29;20550;-76
2022/07/06 08:05:40;;;;;;;2.10;1.30;;;16.20;92.00;;;17.04;74.08;98954.91;4931408;29;20505;-76
2022/07/06 08:08:09;;;;;;;3.90;1.80;;;16.30;92.00;;;17.07;74.12;98959.00;4932138;29;20613;-76
2022/07/06 08:10:40;;;;;;;2.37;1.70;;;16.30;92.00;;;17.12;72.09;98948.59;4931674;29;20474;-76
2022/07/06 08:13:30;;;;;;;5.80;1.70;;;16.30;91.60;;;17.11;71.95;98952.28;4931555;29;20897;-76
2022/07/06 08:16:01;;;;;;;3.07;1.33;;;16.50;91.50;;;17.15;71.84;98945.53;4931513;29;20463;-76
2022/07/06 08:18:31;;;;;;;1.63;1.03;;;16.40;91.50;;;17.22;72.05;98949.00;4930140;29;20462;-77
2022/07/06 08:21:01;;;;;;;1.77;1.27;;;16.50;91.70;;;17.21;71.45;98951.84;4932324;29;21021;-76
2022/07/06 08:23:51;;;;;;;2.80;1.33;;;16.40;91.20;;;17.27;70.95;98943.09;4941770;29;20557;-76
2022/07/06 08:26:23;;;;;;;1.30;1.20;;;16.40;91.40;;;17.37;70.87;98954.84;4930061;29;20841;-76
2022/07/06 08:28:52;;;;;;;2.67;1.60;;;16.50;91.40;;;17.38;69.92;98939.81;4931219;29;20455;-76
2022/07/06 08:31:23;;;;;;;1.67;1.40;;;16.50;91.20;;;17.46;69.68;98947.50;4932168;29;20484;-76
2022/07/06 08:34:13;;;;;;;3.57;1.63;;;16.60;91.20;;;17.58;70.49;98946.69;4931242;29;20972;-76
2022/07/06 08:36:43;;;;;;;5.17;1.70;;;16.80;91.50;;;17.64;69.67;98952.13;4932189;29;20530;-77
2022/07/06 08:39:12;;;;;;;3.97;1.63;;;16.80;91.20;;;17.63;69.77;98950.53;4929808;29;20581;-76
2022/07/06 08:41:47;;;;;;;3.27;1.67;;;16.90;91.20;;;17.67;69.74;98946.47;4930719;29;20970;-76
2022/07/06 08:44:17;;;;;;;1.97;1.37;;;16.90;91.20;;;17.68;69.46;98948.06;4931564;29;20875;-76
2022/07/06 08:46:47;;;;;;;3.07;1.53;;;17.00;91.10;;;17.66;68.72;98944.81;4930548;29;21001;-76
2022/07/06 08:49:17;;;;;;;2.03;1.30;;;17.00;90.80;;;17.63;68.28;98947.91;4930456;29;20460;-75
2022/07/06 08:51:47;;;;;;;1.23;1.10;;;17.00;91.10;;;17.54;66.46;98948.09;4929077;29;20458;-76
2022/07/06 08:54:18;;;;;;;3.13;1.43;;;16.90;90.20;;;17.56;66.38;98946.06;4930139;29;20538;-76
2022/07/06 08:56:50;;;;;;;3.73;1.60;;;16.80;90.20;;;17.60;66.24;98946.47;4931189;29;20490;-76
2022/07/06 08:59:19;;;;;;;2.17;1.37;;;16.80;90.20;;;17.58;65.71;98948.50;4931169;29;20667;-76
2022/07/06 09:01:50;;;;;;;11.37;1.67;;;16.80;90.20;;;17.63;66.00;98959.28;4932198;29;20522;-77
2022/07/06 09:04:23;;;;;;;1.67;1.30;;;16.80;90.40;;;17.68;66.40;98956.00;4930234;29;20470;-76
2022/07/06 09:06:55;;;;;;;4.20;1.20;;;16.90;90.50;;;17.70;65.87;98959.25;4931550;29;20439;-76
2022/07/06 09:09:26;;;;;;;7.27;1.57;;;17.00;90.20;;;17.73;65.74;98959.66;4929433;29;20848;-76
2022/07/06 09:11:57;;;;;;;3.80;1.30;;;17.00;90.30;;;17.76;65.24;98964.53;4929810;29;20481;-76
2022/07/06 09:14:32;;;;;;;2.07;1.50;;;17.00;90.00;;;17.78;64.84;98956.34;4930889;29;20454;-76
2022/07/06 09:17:07;;;;;;;4.10;1.30;;;17.10;90.00;;;17.73;62.20;98953.53;4930596;29;20451;-77
2022/07/06 09:19:47;;;;;;;1.90;1.30;;;17.00;87.90;;;17.74;61.54;98955.16;4930331;29;20470;-76
2022/07/06 09:22:30;;;;;;;3.00;1.53;;;16.90;87.70;;;17.83;62.63;98960.00;4930399;29;20945;-76
2022/07/06 09:25:09;;;;;;;1.57;1.20;;;17.00;89.10;;;17.86;62.03;98949.00;4930768;29;20470;-76
2022/07/06 09:27:42;;;;;;;8.60;1.20;;;17.10;88.60;;;17.89;62.98;98947.75;4931441;29;20496;-76
2022/07/06 09:30:13;;;;;;;1.70;1.30;;;17.20;89.00;;;17.93;63.20;98956.91;4930621;29;20517;-76
2022/07/06 09:32:45;;;;;;;6.77;1.50;;;17.20;89.50;;;17.97;63.59;98950.16;4930739;29;20462;-76
2022/07/06 09:35:23;;;;;;;2.10;1.47;;;17.30;89.80;;;18.02;63.70;98951.16;4931927;29;20514;-76
2022/07/06 09:38:06;;;;;;;5.87;1.70;;;17.30;90.00;;;18.07;63.80;98953.16;4930608;29;20455;-76
2022/07/06 09:40:40;;;;;;;1.97;1.20;;;17.30;89.80;;;18.08;63.23;98958.22;4930167;29;20458;-76
2022/07/06 09:43:16;;;;;;;7.03;1.60;;;17.40;89.50;;;18.09;62.55;98951.91;4930697;29;20622;-76
2022/07/06 09:45:50;;;;;;;6.37;1.70;;;17.30;89.00;;;18.15;61.27;98958.22;4930781;29;20826;-77
2022/07/06 09:48:23;;;;;;;1.63;1.10;;;17.40;88.50;;;18.21;61.50;98957.38;4930141;29;20499;-76
2022/07/06 09:50:57;;;;;;;1.80;1.23;;;17.40;88.60;;;18.30;61.47;98955.25;4929230;29;20485;-76
2022/07/06 09:53:28;;;;;;;4.57;1.13;;;17.50;88.70;;;18.30;59.92;98955.25;4930393;29;20469;-76
2022/07/06 09:55:58;;;;;;;2.60;1.37;;;17.60;87.30;;;18.27;59.66;98955.69;4931256;29;20482;-76
2022/07/06 09:58:29;;;;;;;2.33;1.20;;;17.50;87.20;;;18.27;58.91;98953.84;4929262;29;20470;-77
2022/07/06 10:01:30;;;;;;;2.23;1.40;;;17.60;86.60;;;18.26;58.98;98944.28;4929921;29;20542;-76
2022/07/06 10:03:59;;;;;;;1.43;1.10;;;17.60;86.90;;;18.25;59.70;98937.38;4931487;29;20506;-76
2022/07/06 10:06:30;;;;;;;2.17;1.10;;;17.60;87.20;;;18.30;60.52;98940.19;4934005;29;20481;-76
2022/07/06 10:09:01;;;;;;;1.30;1.10;;;17.50;88.20;;;18.38;61.08;98941.75;4933126;29;20486;-76
2022/07/06 10:11:37;;;;;;;3.10;1.43;;;17.60;88.80;;;18.43;60.72;98939.28;4931067;29;20565;-76
2022/07/06 10:14:09;;;;;;;2.50;1.17;;;17.70;88.10;;;18.44;59.26;98952.31;4931882;29;20466;-77
2022/07/06 10:16:40;;;;;;;1.80;1.00;;;17.80;87.10;;;18.46;59.93;98944.16;4931808;29;20490;-79
2022/07/06 10:19:10;;;;;;;1.77;1.30;;;17.80;87.50;;;18.53;60.56;98945.72;4932835;29;21216;-76
2022/07/06 10:21:42;;;;;;;1.67;1.20;;;17.80;88.10;;;18.57;59.71;98946.94;4932781;29;20462;-77
2022/07/06 10:24:14;;;;;;;1.70;1.20;;;17.80;87.60;;;18.66;59.77;98944.84;4932940;29;21151;-76
2022/07/06 10:26:46;;;;;;;2.10;1.33;;;17.90;87.70;;;18.70;59.78;98942.56;4932146;29;20869;-77
2022/07/06 10:29:17;;;;;;;3.00;1.10;;;18.00;87.50;;;18.73;59.03;98940.28;4934226;29;20541;-76
2022/07/06 10:31:51;;;;;;;3.63;1.10;;;18.00;87.10;;;18.78;59.04;98945.75;4932087;29;20844;-76
2022/07/06 10:34:21;;;;;;;1.30;1.07;;;18.10;86.70;;;18.70;57.00;98948.69;4932544;29;20957;-76
2022/07/06 10:36:54;;;;;;;1.50;0.97;;;17.90;84.80;;;18.77;57.30;98930.88;4932890;29;20510;-76
2022/07/06 10:42:56;;;;;;;1.70;1.40;;;18.00;85.10;;;18.80;56.16;98940.25;4933687;29;20466;-77